sensor_id;sensor_type;location;lat;lon;timestamp;P1;durP1;ratioP1;P2;durP2;ratioP2
13799;SDS011;6971;50.028;9.258;2023-07-30T00:00:42;8.23;;;5.43;;
13799;SDS011;6971;50.028;9.258;2023-07-30T00:05:42;7.90;;;5.30;;
13799;SDS011;6971;50.028;9.258;2023-07-30T00:10:42;8.23;;;5.43;;
13799;SDS011;6971;50.028;9.258;2023-07-30T00:15:45;6.00;;;5.40;;
13799;SDS011;6971;50.028;9.258;2023-07-30T00:20:46;5.50;;;5.00;;
13799;SDS011;6971;50.028;9.258;2023-07-30T00:25:46;6.40;;;5.23;;
13799;SDS011;6971;50.028;9.258;2023-07-30T00:30:47;5.87;;;5.37;;
13799;SDS011;6971;50.028;9.258;2023-07-30T00:35:50;6.20;;;5.67;;
13799;SDS011;6971;50.028;9.258;2023-07-30T00:40:52;5.80;;;5.07;;
13799;SDS011;6971;50.028;9.258;2023-07-30T00:45:52;5.43;;;5.00;;
13799;SDS011;6971;50.028;9.258;2023-07-30T00:50:53;11.27;;;6.20;;
13799;SDS011;6971;50.028;9.258;2023-07-30T00:55:54;9.67;;;5.70;;
13799;SDS011;6971;50.028;9.258;2023-07-30T01:00:54;6.20;;;5.60;;
13799;SDS011;6971;50.028;9.258;2023-07-30T01:05:56;7.00;;;5.27;;
13799;SDS011;6971;50.028;9.258;2023-07-30T01:10:56;6.33;;;5.73;;
13799;SDS011;6971;50.028;9.258;2023-07-30T01:15:58;6.73;;;5.37;;
13799;SDS011;6971;50.028;9.258;2023-07-30T01:20:59;6.40;;;5.80;;
13799;SDS011;6971;50.028;9.258;2023-07-30T01:26:10;8.93;;;5.93;;
13799;SDS011;6971;50.028;9.258;2023-07-30T01:31:16;7.17;;;5.40;;
13799;SDS011;6971;50.028;9.258;2023-07-30T01:36:18;6.70;;;5.27;;
13799;SDS011;6971;50.028;9.258;2023-07-30T01:41:20;8.97;;;6.27;;
13799;SDS011;6971;50.028;9.258;2023-07-30T01:46:20;7.20;;;6.50;;
13799;SDS011;6971;50.028;9.258;2023-07-30T01:51:21;6.40;;;5.80;;
13799;SDS011;6971;50.028;9.258;2023-07-30T01:56:21;9.30;;;5.70;;
13799;SDS011;6971;50.028;9.258;2023-07-30T02:01:22;8.67;;;6.23;;
13799;SDS011;6971;50.028;9.258;2023-07-30T02:06:22;9.23;;;5.67;;
13799;SDS011;6971;50.028;9.258;2023-07-30T02:11:22;8.07;;;6.27;;
13799;SDS011;6971;50.028;9.258;2023-07-30T02:16:23;8.73;;;6.10;;
13799;SDS011;6971;50.028;9.258;2023-07-30T02:21:23;7.60;;;5.57;;
13799;SDS011;6971;50.028;9.258;2023-07-30T02:26:24;9.93;;;6.10;;
13799;SDS011;6971;50.028;9.258;2023-07-30T02:31:24;7.43;;;6.10;;
13799;SDS011;6971;50.028;9.258;2023-07-30T02:36:25;9.47;;;5.53;;
13799;SDS011;6971;50.028;9.258;2023-07-30T02:41:25;7.97;;;5.53;;
13799;SDS011;6971;50.028;9.258;2023-07-30T02:46:26;6.57;;;5.90;;
13799;SDS011;6971;50.028;9.258;2023-07-30T02:51:26;10.50;;;5.70;;
13799;SDS011;6971;50.028;9.258;2023-07-30T02:56:26;6.20;;;5.60;;
13799;SDS011;6971;50.028;9.258;2023-07-30T03:01:26;12.50;;;6.43;;
13799;SDS011;6971;50.028;9.258;2023-07-30T03:06:27;7.17;;;5.53;;
13799;SDS011;6971;50.028;9.258;2023-07-30T03:11:27;9.50;;;5.77;;
13799;SDS011;6971;50.028;9.258;2023-07-30T03:16:28;8.17;;;6.17;;
13799;SDS011;6971;50.028;9.258;2023-07-30T03:21:28;6.90;;;5.93;;
13799;SDS011;6971;50.028;9.258;2023-07-30T03:26:29;7.73;;;5.67;;
13799;SDS011;6971;50.028;9.258;2023-07-30T03:31:30;8.03;;;5.57;;
13799;SDS011;6971;50.028;9.258;2023-07-30T03:36:30;8.07;;;5.60;;
13799;SDS011;6971;50.028;9.258;2023-07-30T03:41:31;6.70;;;6.10;;
13799;SDS011;6971;50.028;9.258;2023-07-30T03:46:31;7.57;;;5.50;;
13799;SDS011;6971;50.028;9.258;2023-07-30T03:51:32;7.43;;;6.23;;
13799;SDS011;6971;50.028;9.258;2023-07-30T03:56:32;12.67;;;6.10;;
13799;SDS011;6971;50.028;9.258;2023-07-30T04:01:33;8.27;;;5.67;;
13799;SDS011;6971;50.028;9.258;2023-07-30T04:06:34;7.87;;;5.83;;
13799;SDS011;6971;50.028;9.258;2023-07-30T04:11:34;11.07;;;7.07;;
13799;SDS011;6971;50.028;9.258;2023-07-30T04:16:35;6.50;;;5.73;;
13799;SDS011;6971;50.028;9.258;2023-07-30T04:21:35;7.23;;;5.63;;
13799;SDS011;6971;50.028;9.258;2023-07-30T04:26:35;8.73;;;5.23;;
13799;SDS011;6971;50.028;9.258;2023-07-30T04:31:36;8.90;;;5.87;;
13799;SDS011;6971;50.028;9.258;2023-07-30T04:36:36;6.07;;;5.47;;
13799;SDS011;6971;50.028;9.258;2023-07-30T04:41:37;8.50;;;6.07;;
13799;SDS011;6971;50.028;9.258;2023-07-30T04:46:37;6.53;;;5.90;;
13799;SDS011;6971;50.028;9.258;2023-07-30T04:51:37;8.13;;;5.73;;
13799;SDS011;6971;50.028;9.258;2023-07-30T04:56:38;5.70;;;5.20;;
13799;SDS011;6971;50.028;9.258;2023-07-30T05:01:38;9.47;;;5.90;;
13799;SDS011;6971;50.028;9.258;2023-07-30T05:06:39;5.20;;;4.73;;
13799;SDS011;6971;50.028;9.258;2023-07-30T05:11:39;7.20;;;5.20;;
13799;SDS011;6971;50.028;9.258;2023-07-30T05:16:39;8.77;;;5.67;;
13799;SDS011;6971;50.028;9.258;2023-07-30T05:21:40;10.07;;;6.73;;
13799;SDS011;6971;50.028;9.258;2023-07-30T05:26:41;8.97;;;6.20;;
13799;SDS011;6971;50.028;9.258;2023-07-30T05:31:41;10.47;;;6.60;;
13799;SDS011;6971;50.028;9.258;2023-07-30T05:36:41;6.97;;;6.23;;
13799;SDS011;6971;50.028;9.258;2023-07-30T05:41:42;6.97;;;6.27;;
13799;SDS011;6971;50.028;9.258;2023-07-30T05:46:42;10.03;;;6.40;;
13799;SDS011;6971;50.028;9.258;2023-07-30T05:51:43;5.80;;;5.23;;
13799;SDS011;6971;50.028;9.258;2023-07-30T05:56:43;5.77;;;5.27;;
13799;SDS011;6971;50.028;9.258;2023-07-30T06:01:44;11.17;;;5.47;;
13799;SDS011;6971;50.028;9.258;2023-07-30T06:06:45;5.23;;;4.73;;
13799;SDS011;6971;50.028;9.258;2023-07-30T06:11:45;7.00;;;5.17;;
13799;SDS011;6971;50.028;9.258;2023-07-30T06:16:46;4.90;;;4.07;;
13799;SDS011;6971;50.028;9.258;2023-07-30T06:21:46;6.30;;;4.63;;
13799;SDS011;6971;50.028;9.258;2023-07-30T06:26:47;5.47;;;4.13;;
13799;SDS011;6971;50.028;9.258;2023-07-30T06:31:47;7.33;;;4.73;;
13799;SDS011;6971;50.028;9.258;2023-07-30T06:36:47;6.47;;;4.73;;
13799;SDS011;6971;50.028;9.258;2023-07-30T06:41:48;7.03;;;4.40;;
13799;SDS011;6971;50.028;9.258;2023-07-30T06:46:48;5.47;;;4.80;;
13799;SDS011;6971;50.028;9.258;2023-07-30T06:51:49;8.23;;;5.00;;
13799;SDS011;6971;50.028;9.258;2023-07-30T06:56:49;6.53;;;4.93;;
13799;SDS011;6971;50.028;9.258;2023-07-30T07:01:49;5.67;;;5.10;;
13799;SDS011;6971;50.028;9.258;2023-07-30T07:06:50;6.67;;;4.63;;
13799;SDS011;6971;50.028;9.258;2023-07-30T07:11:51;6.83;;;4.03;;
13799;SDS011;6971;50.028;9.258;2023-07-30T07:16:52;7.33;;;3.53;;
13799;SDS011;6971;50.028;9.258;2023-07-30T07:21:54;3.13;;;2.63;;
13799;SDS011;6971;50.028;9.258;2023-07-30T07:26:55;4.80;;;2.90;;
13799;SDS011;6971;50.028;9.258;2023-07-30T07:31:55;7.93;;;3.17;;
13799;SDS011;6971;50.028;9.258;2023-07-30T07:36:55;3.23;;;2.03;;
13799;SDS011;6971;50.028;9.258;2023-07-30T07:41:56;4.83;;;3.00;;
13799;SDS011;6971;50.028;9.258;2023-07-30T07:46:56;2.83;;;2.63;;
13799;SDS011;6971;50.028;9.258;2023-07-30T07:51:57;2.57;;;2.07;;
13799;SDS011;6971;50.028;9.258;2023-07-30T07:56:58;2.63;;;2.43;;
13799;SDS011;6971;50.028;9.258;2023-07-30T08:01:58;2.87;;;2.57;;
13799;SDS011;6971;50.028;9.258;2023-07-30T08:06:59;2.53;;;2.33;;
13799;SDS011;6971;50.028;9.258;2023-07-30T08:12:03;3.30;;;2.57;;
13799;SDS011;6971;50.028;9.258;2023-07-30T08:17:04;3.63;;;2.70;;
13799;SDS011;6971;50.028;9.258;2023-07-30T08:22:04;3.27;;;2.53;;
13799;SDS011;6971;50.028;9.258;2023-07-30T08:27:05;2.90;;;2.70;;
13799;SDS011;6971;50.028;9.258;2023-07-30T08:32:05;5.00;;;2.40;;
13799;SDS011;6971;50.028;9.258;2023-07-30T08:37:07;2.90;;;2.60;;
13799;SDS011;6971;50.028;9.258;2023-07-30T08:42:07;3.00;;;2.70;;
13799;SDS011;6971;50.028;9.258;2023-07-30T08:47:08;4.47;;;3.50;;
13799;SDS011;6971;50.028;9.258;2023-07-30T08:52:09;2.93;;;2.70;;
13799;SDS011;6971;50.028;9.258;2023-07-30T08:57:10;3.57;;;3.27;;
13799;SDS011;6971;50.028;9.258;2023-07-30T09:02:26;4.40;;;3.07;;
13799;SDS011;6971;50.028;9.258;2023-07-30T09:07:35;2.50;;;2.30;;
13799;SDS011;6971;50.028;9.258;2023-07-30T09:12:36;2.87;;;2.67;;
13799;SDS011;6971;50.028;9.258;2023-07-30T09:17:36;4.40;;;2.60;;
13799;SDS011;6971;50.028;9.258;2023-07-30T09:22:37;4.30;;;2.83;;
13799;SDS011;6971;50.028;9.258;2023-07-30T09:27:39;4.73;;;3.20;;
13799;SDS011;6971;50.028;9.258;2023-07-30T09:32:40;4.03;;;3.07;;
13799;SDS011;6971;50.028;9.258;2023-07-30T09:37:41;3.40;;;2.70;;
13799;SDS011;6971;50.028;9.258;2023-07-30T09:42:42;2.87;;;2.50;;
13799;SDS011;6971;50.028;9.258;2023-07-30T09:47:48;3.60;;;2.27;;
13799;SDS011;6971;50.028;9.258;2023-07-30T09:52:50;4.90;;;2.10;;
13799;SDS011;6971;50.028;9.258;2023-07-30T09:57:50;3.73;;;2.30;;
13799;SDS011;6971;50.028;9.258;2023-07-30T10:02:51;2.40;;;2.20;;
13799;SDS011;6971;50.028;9.258;2023-07-30T10:08:00;3.03;;;1.97;;
13799;SDS011;6971;50.028;9.258;2023-07-30T10:13:08;2.50;;;2.17;;
13799;SDS011;6971;50.028;9.258;2023-07-30T10:18:11;3.07;;;2.13;;
13799;SDS011;6971;50.028;9.258;2023-07-30T10:23:11;4.60;;;2.40;;
13799;SDS011;6971;50.028;9.258;2023-07-30T10:33:51;3.27;;;2.97;;
13799;SDS011;6971;50.028;9.258;2023-07-30T10:38:55;2.07;;;1.77;;
13799;SDS011;6971;50.028;9.258;2023-07-30T10:43:56;1.70;;;1.13;;
13799;SDS011;6971;50.028;9.258;2023-07-30T10:48:57;1.43;;;1.00;;
13799;SDS011;6971;50.028;9.258;2023-07-30T10:53:58;3.70;;;1.00;;
13799;SDS011;6971;50.028;9.258;2023-07-30T10:58:58;2.77;;;0.90;;
13799;SDS011;6971;50.028;9.258;2023-07-30T11:03:59;1.13;;;0.90;;
13799;SDS011;6971;50.028;9.258;2023-07-30T11:09:00;3.13;;;1.20;;
13799;SDS011;6971;50.028;9.258;2023-07-30T11:14:01;1.13;;;1.03;;
13799;SDS011;6971;50.028;9.258;2023-07-30T11:19:01;1.50;;;1.00;;
13799;SDS011;6971;50.028;9.258;2023-07-30T11:24:09;1.97;;;1.00;;
13799;SDS011;6971;50.028;9.258;2023-07-30T11:29:16;1.37;;;1.10;;
13799;SDS011;6971;50.028;9.258;2023-07-30T11:34:18;2.40;;;1.20;;
13799;SDS011;6971;50.028;9.258;2023-07-30T11:39:19;3.90;;;1.40;;
13799;SDS011;6971;50.028;9.258;2023-07-30T11:44:30;2.27;;;1.30;;
13799;SDS011;6971;50.028;9.258;2023-07-30T11:49:38;2.67;;;1.30;;
13799;SDS011;6971;50.028;9.258;2023-07-30T11:54:39;4.60;;;1.90;;
13799;SDS011;6971;50.028;9.258;2023-07-30T11:59:39;2.87;;;1.50;;
13799;SDS011;6971;50.028;9.258;2023-07-30T12:04:45;2.83;;;1.33;;
13799;SDS011;6971;50.028;9.258;2023-07-30T12:09:46;3.60;;;1.40;;
13799;SDS011;6971;50.028;9.258;2023-07-30T12:19:47;2.70;;;1.53;;
13799;SDS011;6971;50.028;9.258;2023-07-30T12:24:49;2.10;;;1.57;;
13799;SDS011;6971;50.028;9.258;2023-07-30T12:29:51;1.57;;;1.10;;
13799;SDS011;6971;50.028;9.258;2023-07-30T12:34:52;2.80;;;1.50;;
13799;SDS011;6971;50.028;9.258;2023-07-30T12:39:54;1.87;;;1.53;;
13799;SDS011;6971;50.028;9.258;2023-07-30T12:44:54;3.77;;;1.60;;
13799;SDS011;6971;50.028;9.258;2023-07-30T12:49:55;4.10;;;1.77;;
13799;SDS011;6971;50.028;9.258;2023-07-30T12:54:55;5.67;;;1.90;;
13799;SDS011;6971;50.028;9.258;2023-07-30T12:59:56;5.73;;;2.10;;
13799;SDS011;6971;50.028;9.258;2023-07-30T13:04:57;3.53;;;1.80;;
13799;SDS011;6971;50.028;9.258;2023-07-30T13:15:06;3.73;;;1.77;;
13799;SDS011;6971;50.028;9.258;2023-07-30T13:20:07;4.30;;;1.60;;
13799;SDS011;6971;50.028;9.258;2023-07-30T13:25:08;4.07;;;1.70;;
13799;SDS011;6971;50.028;9.258;2023-07-30T13:30:09;2.53;;;1.33;;
13799;SDS011;6971;50.028;9.258;2023-07-30T13:35:09;2.93;;;1.73;;
13799;SDS011;6971;50.028;9.258;2023-07-30T13:40:10;2.67;;;1.40;;
13799;SDS011;6971;50.028;9.258;2023-07-30T13:45:13;3.90;;;2.00;;
13799;SDS011;6971;50.028;9.258;2023-07-30T13:50:14;3.47;;;1.90;;
13799;SDS011;6971;50.028;9.258;2023-07-30T13:55:15;3.57;;;1.80;;
13799;SDS011;6971;50.028;9.258;2023-07-30T14:00:16;3.87;;;1.80;;
13799;SDS011;6971;50.028;9.258;2023-07-30T14:05:17;3.40;;;1.80;;
13799;SDS011;6971;50.028;9.258;2023-07-30T14:10:18;3.90;;;1.70;;
13799;SDS011;6971;50.028;9.258;2023-07-30T14:15:19;5.07;;;2.00;;
13799;SDS011;6971;50.028;9.258;2023-07-30T14:20:20;3.90;;;1.63;;
13799;SDS011;6971;50.028;9.258;2023-07-30T14:25:22;2.87;;;1.90;;
13799;SDS011;6971;50.028;9.258;2023-07-30T14:30:22;4.70;;;1.73;;
13799;SDS011;6971;50.028;9.258;2023-07-30T14:35:23;3.07;;;1.83;;
13799;SDS011;6971;50.028;9.258;2023-07-30T14:40:23;4.13;;;1.77;;
13799;SDS011;6971;50.028;9.258;2023-07-30T14:45:24;5.10;;;1.87;;
13799;SDS011;6971;50.028;9.258;2023-07-30T14:50:25;3.20;;;1.83;;
13799;SDS011;6971;50.028;9.258;2023-07-30T14:55:26;3.90;;;1.60;;
13799;SDS011;6971;50.028;9.258;2023-07-30T15:00:26;5.30;;;2.43;;
13799;SDS011;6971;50.028;9.258;2023-07-30T15:05:27;5.03;;;1.97;;
13799;SDS011;6971;50.028;9.258;2023-07-30T15:10:27;3.27;;;1.60;;
13799;SDS011;6971;50.028;9.258;2023-07-30T15:15:28;4.23;;;1.80;;
13799;SDS011;6971;50.028;9.258;2023-07-30T15:20:29;4.40;;;1.90;;
13799;SDS011;6971;50.028;9.258;2023-07-30T15:25:29;3.77;;;1.70;;
13799;SDS011;6971;50.028;9.258;2023-07-30T15:30:30;4.40;;;1.60;;
13799;SDS011;6971;50.028;9.258;2023-07-30T15:35:30;3.70;;;1.90;;
13799;SDS011;6971;50.028;9.258;2023-07-30T15:40:33;3.53;;;1.63;;
13799;SDS011;6971;50.028;9.258;2023-07-30T15:45:34;8.33;;;2.20;;
13799;SDS011;6971;50.028;9.258;2023-07-30T15:50:43;5.67;;;1.83;;
13799;SDS011;6971;50.028;9.258;2023-07-30T15:55:44;2.60;;;1.37;;
13799;SDS011;6971;50.028;9.258;2023-07-30T16:00:44;5.33;;;3.60;;
13799;SDS011;6971;50.028;9.258;2023-07-30T16:05:48;5.30;;;2.77;;
13799;SDS011;6971;50.028;9.258;2023-07-30T16:10:48;7.03;;;3.50;;
13799;SDS011;6971;50.028;9.258;2023-07-30T16:15:49;8.13;;;2.20;;
13799;SDS011;6971;50.028;9.258;2023-07-30T16:20:59;3.93;;;1.80;;
13799;SDS011;6971;50.028;9.258;2023-07-30T16:26:01;3.27;;;1.60;;
13799;SDS011;6971;50.028;9.258;2023-07-30T16:31:02;5.43;;;2.90;;
13799;SDS011;6971;50.028;9.258;2023-07-30T16:36:02;4.27;;;1.70;;
13799;SDS011;6971;50.028;9.258;2023-07-30T16:41:04;4.60;;;2.10;;
13799;SDS011;6971;50.028;9.258;2023-07-30T16:46:04;3.50;;;1.77;;
13799;SDS011;6971;50.028;9.258;2023-07-30T16:51:05;5.63;;;2.07;;
13799;SDS011;6971;50.028;9.258;2023-07-30T16:56:10;4.57;;;1.53;;
13799;SDS011;6971;50.028;9.258;2023-07-30T17:01:12;5.67;;;2.63;;
13799;SDS011;6971;50.028;9.258;2023-07-30T17:06:12;7.47;;;2.30;;
13799;SDS011;6971;50.028;9.258;2023-07-30T17:11:13;3.93;;;1.83;;
13799;SDS011;6971;50.028;9.258;2023-07-30T17:16:14;4.23;;;1.90;;
13799;SDS011;6971;50.028;9.258;2023-07-30T17:21:16;5.10;;;1.80;;
13799;SDS011;6971;50.028;9.258;2023-07-30T17:26:17;4.63;;;2.40;;
13799;SDS011;6971;50.028;9.258;2023-07-30T17:31:17;6.23;;;1.87;;
13799;SDS011;6971;50.028;9.258;2023-07-30T17:36:18;3.93;;;2.00;;
13799;SDS011;6971;50.028;9.258;2023-07-30T17:41:18;4.17;;;1.93;;
13799;SDS011;6971;50.028;9.258;2023-07-30T17:46:19;3.43;;;1.87;;
13799;SDS011;6971;50.028;9.258;2023-07-30T17:51:21;6.80;;;2.10;;
13799;SDS011;6971;50.028;9.258;2023-07-30T17:56:21;7.03;;;3.83;;
13799;SDS011;6971;50.028;9.258;2023-07-30T18:01:22;4.03;;;2.27;;
13799;SDS011;6971;50.028;9.258;2023-07-30T18:06:22;3.00;;;1.70;;
13799;SDS011;6971;50.028;9.258;2023-07-30T18:11:24;4.10;;;1.77;;
13799;SDS011;6971;50.028;9.258;2023-07-30T18:16:24;5.87;;;1.93;;
13799;SDS011;6971;50.028;9.258;2023-07-30T18:21:26;2.70;;;1.77;;
13799;SDS011;6971;50.028;9.258;2023-07-30T18:26:27;6.50;;;2.70;;
13799;SDS011;6971;50.028;9.258;2023-07-30T18:31:27;6.80;;;1.87;;
13799;SDS011;6971;50.028;9.258;2023-07-30T18:36:27;3.80;;;1.70;;
13799;SDS011;6971;50.028;9.258;2023-07-30T18:41:30;2.73;;;1.73;;
13799;SDS011;6971;50.028;9.258;2023-07-30T18:46:31;5.37;;;1.77;;
13799;SDS011;6971;50.028;9.258;2023-07-30T18:51:32;5.17;;;1.40;;
13799;SDS011;6971;50.028;9.258;2023-07-30T18:56:32;6.07;;;2.00;;
13799;SDS011;6971;50.028;9.258;2023-07-30T19:01:33;8.03;;;4.13;;
13799;SDS011;6971;50.028;9.258;2023-07-30T19:06:35;4.70;;;2.30;;
13799;SDS011;6971;50.028;9.258;2023-07-30T19:11:35;10.63;;;3.07;;
13799;SDS011;6971;50.028;9.258;2023-07-30T19:16:36;6.40;;;2.30;;
13799;SDS011;6971;50.028;9.258;2023-07-30T19:21:36;7.93;;;3.10;;
13799;SDS011;6971;50.028;9.258;2023-07-30T19:26:37;10.07;;;6.37;;
13799;SDS011;6971;50.028;9.258;2023-07-30T19:31:38;10.37;;;4.27;;
13799;SDS011;6971;50.028;9.258;2023-07-30T19:36:39;6.40;;;4.73;;
13799;SDS011;6971;50.028;9.258;2023-07-30T19:41:39;9.57;;;3.57;;
13799;SDS011;6971;50.028;9.258;2023-07-30T19:46:41;9.60;;;4.17;;
13799;SDS011;6971;50.028;9.258;2023-07-30T19:51:42;7.60;;;2.73;;
13799;SDS011;6971;50.028;9.258;2023-07-30T19:56:43;9.20;;;2.33;;
13799;SDS011;6971;50.028;9.258;2023-07-30T20:01:43;7.27;;;2.13;;
13799;SDS011;6971;50.028;9.258;2023-07-30T20:06:44;7.60;;;2.70;;
13799;SDS011;6971;50.028;9.258;2023-07-30T20:11:45;5.77;;;2.80;;
13799;SDS011;6971;50.028;9.258;2023-07-30T20:16:46;4.47;;;2.60;;
13799;SDS011;6971;50.028;9.258;2023-07-30T20:21:47;8.30;;;2.87;;
13799;SDS011;6971;50.028;9.258;2023-07-30T20:26:49;9.77;;;3.67;;
13799;SDS011;6971;50.028;9.258;2023-07-30T20:31:49;5.67;;;2.40;;
13799;SDS011;6971;50.028;9.258;2023-07-30T20:36:50;7.03;;;2.90;;
13799;SDS011;6971;50.028;9.258;2023-07-30T20:41:50;8.47;;;2.70;;
13799;SDS011;6971;50.028;9.258;2023-07-30T20:46:52;7.03;;;3.30;;
13799;SDS011;6971;50.028;9.258;2023-07-30T20:51:53;4.73;;;3.13;;
13799;SDS011;6971;50.028;9.258;2023-07-30T20:56:54;6.10;;;2.30;;
13799;SDS011;6971;50.028;9.258;2023-07-30T21:01:55;6.80;;;2.70;;
13799;SDS011;6971;50.028;9.258;2023-07-30T21:06:56;8.07;;;2.60;;
13799;SDS011;6971;50.028;9.258;2023-07-30T21:11:56;7.17;;;2.33;;
13799;SDS011;6971;50.028;9.258;2023-07-30T21:16:57;3.60;;;2.30;;
13799;SDS011;6971;50.028;9.258;2023-07-30T21:21:58;6.87;;;2.60;;
13799;SDS011;6971;50.028;9.258;2023-07-30T21:26:59;5.93;;;2.80;;
13799;SDS011;6971;50.028;9.258;2023-07-30T21:32:00;5.97;;;2.73;;
13799;SDS011;6971;50.028;9.258;2023-07-30T21:37:01;8.83;;;2.53;;
13799;SDS011;6971;50.028;9.258;2023-07-30T21:42:02;3.97;;;2.20;;
13799;SDS011;6971;50.028;9.258;2023-07-30T21:47:03;8.03;;;3.00;;
13799;SDS011;6971;50.028;9.258;2023-07-30T21:52:19;5.83;;;2.70;;
13799;SDS011;6971;50.028;9.258;2023-07-30T21:57:22;5.10;;;2.80;;
13799;SDS011;6971;50.028;9.258;2023-07-30T22:02:23;8.33;;;2.33;;
13799;SDS011;6971;50.028;9.258;2023-07-30T22:07:24;7.27;;;2.90;;
13799;SDS011;6971;50.028;9.258;2023-07-30T22:12:24;5.50;;;2.40;;
13799;SDS011;6971;50.028;9.258;2023-07-30T22:17:25;4.43;;;2.50;;
13799;SDS011;6971;50.028;9.258;2023-07-30T22:22:26;7.77;;;2.60;;
13799;SDS011;6971;50.028;9.258;2023-07-30T22:27:27;5.47;;;2.37;;
13799;SDS011;6971;50.028;9.258;2023-07-30T22:32:28;5.87;;;2.33;;
13799;SDS011;6971;50.028;9.258;2023-07-30T22:37:29;8.80;;;3.07;;
13799;SDS011;6971;50.028;9.258;2023-07-30T22:42:30;5.50;;;2.87;;
13799;SDS011;6971;50.028;9.258;2023-07-30T22:47:31;5.60;;;2.47;;
13799;SDS011;6971;50.028;9.258;2023-07-30T22:52:32;7.33;;;2.97;;
13799;SDS011;6971;50.028;9.258;2023-07-30T22:57:32;5.73;;;2.57;;
13799;SDS011;6971;50.028;9.258;2023-07-30T23:02:33;9.37;;;3.10;;
13799;SDS011;6971;50.028;9.258;2023-07-30T23:07:34;4.37;;;2.93;;
13799;SDS011;6971;50.028;9.258;2023-07-30T23:12:34;11.83;;;3.40;;
13799;SDS011;6971;50.028;9.258;2023-07-30T23:17:35;7.80;;;2.90;;
13799;SDS011;6971;50.028;9.258;2023-07-30T23:22:36;3.73;;;2.57;;
13799;SDS011;6971;50.028;9.258;2023-07-30T23:27:36;8.27;;;2.83;;
13799;SDS011;6971;50.028;9.258;2023-07-30T23:32:37;8.67;;;2.57;;
13799;SDS011;6971;50.028;9.258;2023-07-30T23:37:38;6.97;;;3.10;;
13799;SDS011;6971;50.028;9.258;2023-07-30T23:42:40;5.23;;;2.63;;
13799;SDS011;6971;50.028;9.258;2023-07-30T23:47:41;8.27;;;2.90;;
13799;SDS011;6971;50.028;9.258;2023-07-30T23:52:42;5.03;;;2.77;;
13799;SDS011;6971;50.028;9.258;2023-07-30T23:57:42;8.17;;;3.30;;
